sensor_id;sensor_type;location;lat;lon;timestamp;P1;durP1;ratioP1;P2;durP2;ratioP2
20283;SDS011;10301;50.832;4.080;2022-11-20T00:01:40;78.93;;;35.93;;
20283;SDS011;10301;50.832;4.080;2022-11-20T00:04:05;82.17;;;34.10;;
20283;SDS011;10301;50.832;4.080;2022-11-20T00:06:31;83.20;;;34.97;;
20283;SDS011;10301;50.832;4.080;2022-11-20T00:08:57;80.20;;;35.23;;
20283;SDS011;10301;50.832;4.080;2022-11-20T00:11:25;77.33;;;33.40;;
20283;SDS011;10301;50.832;4.080;2022-11-20T00:13:53;83.13;;;35.63;;
20283;SDS011;10301;50.832;4.080;2022-11-20T00:16:21;83.97;;;34.67;;
20283;SDS011;10301;50.832;4.080;2022-11-20T00:18:48;80.17;;;34.97;;
20283;SDS011;10301;50.832;4.080;2022-11-20T00:21:14;89.60;;;35.00;;
20283;SDS011;10301;50.832;4.080;2022-11-20T00:23:42;84.93;;;34.07;;
20283;SDS011;10301;50.832;4.080;2022-11-20T00:26:09;87.80;;;34.80;;
20283;SDS011;10301;50.832;4.080;2022-11-20T00:28:37;87.30;;;35.90;;
20283;SDS011;10301;50.832;4.080;2022-11-20T00:31:03;82.13;;;34.83;;
20283;SDS011;10301;50.832;4.080;2022-11-20T00:33:34;76.50;;;33.93;;
20283;SDS011;10301;50.832;4.080;2022-11-20T00:36:06;77.53;;;33.50;;
20283;SDS011;10301;50.832;4.080;2022-11-20T00:38:37;84.23;;;34.80;;
20283;SDS011;10301;50.832;4.080;2022-11-20T00:41:04;88.77;;;34.13;;
20283;SDS011;10301;50.832;4.080;2022-11-20T00:43:32;83.70;;;38.53;;
20283;SDS011;10301;50.832;4.080;2022-11-20T00:48:24;77.77;;;33.17;;
20283;SDS011;10301;50.832;4.080;2022-11-20T00:50:50;74.40;;;32.80;;
20283;SDS011;10301;50.832;4.080;2022-11-20T00:53:15;78.60;;;34.43;;
20283;SDS011;10301;50.832;4.080;2022-11-20T00:55:41;81.47;;;33.60;;
20283;SDS011;10301;50.832;4.080;2022-11-20T00:58:07;73.90;;;33.97;;
20283;SDS011;10301;50.832;4.080;2022-11-20T01:00:32;77.03;;;33.37;;
20283;SDS011;10301;50.832;4.080;2022-11-20T01:02:58;74.50;;;30.80;;
20283;SDS011;10301;50.832;4.080;2022-11-20T01:05:23;76.73;;;31.77;;
20283;SDS011;10301;50.832;4.080;2022-11-20T01:07:49;72.40;;;31.10;;
20283;SDS011;10301;50.832;4.080;2022-11-20T01:10:14;79.80;;;31.40;;
20283;SDS011;10301;50.832;4.080;2022-11-20T01:12:40;74.00;;;31.10;;
20283;SDS011;10301;50.832;4.080;2022-11-20T01:15:06;78.13;;;32.40;;
20283;SDS011;10301;50.832;4.080;2022-11-20T01:17:33;80.67;;;33.00;;
20283;SDS011;10301;50.832;4.080;2022-11-20T01:19:58;77.97;;;33.17;;
20283;SDS011;10301;50.832;4.080;2022-11-20T01:22:24;82.03;;;34.87;;
20283;SDS011;10301;50.832;4.080;2022-11-20T01:24:50;82.13;;;33.70;;
20283;SDS011;10301;50.832;4.080;2022-11-20T01:27:15;82.10;;;35.17;;
20283;SDS011;10301;50.832;4.080;2022-11-20T01:29:41;81.40;;;34.03;;
20283;SDS011;10301;50.832;4.080;2022-11-20T01:32:06;81.80;;;33.27;;
20283;SDS011;10301;50.832;4.080;2022-11-20T01:34:32;85.80;;;33.93;;
20283;SDS011;10301;50.832;4.080;2022-11-20T01:36:58;81.00;;;33.93;;
20283;SDS011;10301;50.832;4.080;2022-11-20T01:39:24;81.93;;;32.67;;
20283;SDS011;10301;50.832;4.080;2022-11-20T01:41:51;76.40;;;33.93;;
20283;SDS011;10301;50.832;4.080;2022-11-20T01:44:53;81.70;;;33.50;;
20283;SDS011;10301;50.832;4.080;2022-11-20T01:47:24;83.17;;;32.97;;
20283;SDS011;10301;50.832;4.080;2022-11-20T01:50:00;76.97;;;32.20;;
20283;SDS011;10301;50.832;4.080;2022-11-20T01:55:04;74.40;;;32.07;;
20283;SDS011;10301;50.832;4.080;2022-11-20T01:57:33;80.43;;;34.23;;
20283;SDS011;10301;50.832;4.080;2022-11-20T02:00:02;81.63;;;33.50;;
20283;SDS011;10301;50.832;4.080;2022-11-20T02:02:34;77.60;;;32.53;;
20283;SDS011;10301;50.832;4.080;2022-11-20T02:05:00;75.53;;;31.47;;
20283;SDS011;10301;50.832;4.080;2022-11-20T02:07:36;72.30;;;30.90;;
20283;SDS011;10301;50.832;4.080;2022-11-20T02:10:03;73.97;;;32.43;;
20283;SDS011;10301;50.832;4.080;2022-11-20T02:12:28;70.37;;;30.13;;
20283;SDS011;10301;50.832;4.080;2022-11-20T02:15:12;72.27;;;30.77;;
20283;SDS011;10301;50.832;4.080;2022-11-20T02:17:38;70.20;;;30.07;;
20283;SDS011;10301;50.832;4.080;2022-11-20T02:20:04;73.13;;;30.77;;
20283;SDS011;10301;50.832;4.080;2022-11-20T02:22:32;67.40;;;29.43;;
20283;SDS011;10301;50.832;4.080;2022-11-20T02:25:03;69.10;;;29.67;;
20283;SDS011;10301;50.832;4.080;2022-11-20T02:27:31;70.97;;;29.20;;
20283;SDS011;10301;50.832;4.080;2022-11-20T02:29:57;70.07;;;30.73;;
20283;SDS011;10301;50.832;4.080;2022-11-20T02:32:28;73.10;;;29.63;;
20283;SDS011;10301;50.832;4.080;2022-11-20T02:34:55;69.47;;;30.33;;
20283;SDS011;10301;50.832;4.080;2022-11-20T02:37:21;78.30;;;29.90;;
20283;SDS011;10301;50.832;4.080;2022-11-20T02:39:49;70.77;;;30.33;;
20283;SDS011;10301;50.832;4.080;2022-11-20T02:42:17;66.67;;;29.10;;
20283;SDS011;10301;50.832;4.080;2022-11-20T02:44:43;67.30;;;29.20;;
20283;SDS011;10301;50.832;4.080;2022-11-20T02:47:09;64.23;;;28.83;;
20283;SDS011;10301;50.832;4.080;2022-11-20T02:49:34;64.57;;;29.50;;
20283;SDS011;10301;50.832;4.080;2022-11-20T02:52:00;73.30;;;31.13;;
20283;SDS011;10301;50.832;4.080;2022-11-20T02:54:25;72.10;;;30.30;;
20283;SDS011;10301;50.832;4.080;2022-11-20T02:56:51;73.23;;;29.33;;
20283;SDS011;10301;50.832;4.080;2022-11-20T02:59:17;72.30;;;28.73;;
20283;SDS011;10301;50.832;4.080;2022-11-20T03:01:43;78.33;;;29.00;;
20283;SDS011;10301;50.832;4.080;2022-11-20T03:04:08;69.87;;;27.33;;
20283;SDS011;10301;50.832;4.080;2022-11-20T03:06:34;69.37;;;29.50;;
20283;SDS011;10301;50.832;4.080;2022-11-20T03:09:00;73.90;;;27.90;;
20283;SDS011;10301;50.832;4.080;2022-11-20T03:11:25;67.10;;;28.80;;
20283;SDS011;10301;50.832;4.080;2022-11-20T03:13:51;67.83;;;26.63;;
20283;SDS011;10301;50.832;4.080;2022-11-20T03:16:20;72.00;;;29.37;;
20283;SDS011;10301;50.832;4.080;2022-11-20T03:18:47;66.30;;;29.60;;
20283;SDS011;10301;50.832;4.080;2022-11-20T03:21:14;74.40;;;28.37;;
20283;SDS011;10301;50.832;4.080;2022-11-20T03:23:40;64.83;;;27.03;;
20283;SDS011;10301;50.832;4.080;2022-11-20T03:26:10;70.73;;;30.10;;
20283;SDS011;10301;50.832;4.080;2022-11-20T03:28:41;74.40;;;29.03;;
20283;SDS011;10301;50.832;4.080;2022-11-20T03:31:12;67.87;;;28.77;;
20283;SDS011;10301;50.832;4.080;2022-11-20T03:33:39;68.03;;;29.63;;
20283;SDS011;10301;50.832;4.080;2022-11-20T03:36:07;70.53;;;29.53;;
20283;SDS011;10301;50.832;4.080;2022-11-20T03:38:34;60.03;;;27.23;;
20283;SDS011;10301;50.832;4.080;2022-11-20T03:41:04;66.47;;;28.10;;
20283;SDS011;10301;50.832;4.080;2022-11-20T03:43:31;67.33;;;27.67;;
20283;SDS011;10301;50.832;4.080;2022-11-20T03:45:57;69.43;;;28.20;;
20283;SDS011;10301;50.832;4.080;2022-11-20T03:48:23;73.27;;;28.70;;
20283;SDS011;10301;50.832;4.080;2022-11-20T03:50:49;66.70;;;28.83;;
20283;SDS011;10301;50.832;4.080;2022-11-20T03:53:16;61.37;;;27.47;;
20283;SDS011;10301;50.832;4.080;2022-11-20T03:55:42;71.60;;;27.70;;
20283;SDS011;10301;50.832;4.080;2022-11-20T03:58:08;68.13;;;27.83;;
20283;SDS011;10301;50.832;4.080;2022-11-20T04:00:34;64.77;;;27.80;;
20283;SDS011;10301;50.832;4.080;2022-11-20T04:03:01;70.60;;;27.37;;
20283;SDS011;10301;50.832;4.080;2022-11-20T04:05:27;70.10;;;27.77;;
20283;SDS011;10301;50.832;4.080;2022-11-20T04:07:53;64.97;;;28.37;;
20283;SDS011;10301;50.832;4.080;2022-11-20T04:10:19;70.37;;;27.80;;
20283;SDS011;10301;50.832;4.080;2022-11-20T04:12:45;68.67;;;28.23;;
20283;SDS011;10301;50.832;4.080;2022-11-20T04:15:10;67.73;;;28.47;;
20283;SDS011;10301;50.832;4.080;2022-11-20T04:17:36;67.87;;;27.23;;
20283;SDS011;10301;50.832;4.080;2022-11-20T04:20:02;64.23;;;26.03;;
20283;SDS011;10301;50.832;4.080;2022-11-20T04:22:28;66.67;;;26.83;;
20283;SDS011;10301;50.832;4.080;2022-11-20T04:24:53;66.43;;;28.17;;
20283;SDS011;10301;50.832;4.080;2022-11-20T04:27:19;67.57;;;27.97;;
20283;SDS011;10301;50.832;4.080;2022-11-20T04:29:45;73.80;;;28.53;;
20283;SDS011;10301;50.832;4.080;2022-11-20T04:32:11;69.00;;;27.97;;
20283;SDS011;10301;50.832;4.080;2022-11-20T04:34:37;78.17;;;30.67;;
20283;SDS011;10301;50.832;4.080;2022-11-20T04:37:02;79.10;;;29.60;;
20283;SDS011;10301;50.832;4.080;2022-11-20T04:39:28;78.23;;;28.73;;
20283;SDS011;10301;50.832;4.080;2022-11-20T04:41:53;73.43;;;28.07;;
20283;SDS011;10301;50.832;4.080;2022-11-20T04:44:39;73.33;;;27.87;;
20283;SDS011;10301;50.832;4.080;2022-11-20T04:47:04;79.03;;;28.57;;
20283;SDS011;10301;50.832;4.080;2022-11-20T04:49:30;73.93;;;28.60;;
20283;SDS011;10301;50.832;4.080;2022-11-20T04:51:57;78.77;;;29.03;;
20283;SDS011;10301;50.832;4.080;2022-11-20T04:54:23;77.47;;;28.70;;
20283;SDS011;10301;50.832;4.080;2022-11-20T04:56:49;83.23;;;30.77;;
20283;SDS011;10301;50.832;4.080;2022-11-20T04:59:15;82.73;;;29.97;;
20283;SDS011;10301;50.832;4.080;2022-11-20T05:01:41;89.00;;;29.30;;
20283;SDS011;10301;50.832;4.080;2022-11-20T05:04:06;86.33;;;30.27;;
20283;SDS011;10301;50.832;4.080;2022-11-20T05:06:32;79.37;;;30.00;;
20283;SDS011;10301;50.832;4.080;2022-11-20T05:08:58;82.53;;;29.90;;
20283;SDS011;10301;50.832;4.080;2022-11-20T05:11:24;83.87;;;29.23;;
20283;SDS011;10301;50.832;4.080;2022-11-20T05:13:51;73.30;;;27.93;;
20283;SDS011;10301;50.832;4.080;2022-11-20T05:16:17;86.37;;;29.20;;
20283;SDS011;10301;50.832;4.080;2022-11-20T05:18:45;88.63;;;29.03;;
20283;SDS011;10301;50.832;4.080;2022-11-20T05:21:12;83.83;;;30.10;;
20283;SDS011;10301;50.832;4.080;2022-11-20T05:23:38;79.83;;;28.73;;
20283;SDS011;10301;50.832;4.080;2022-11-20T05:26:05;77.13;;;28.70;;
20283;SDS011;10301;50.832;4.080;2022-11-20T05:28:32;90.07;;;29.83;;
20283;SDS011;10301;50.832;4.080;2022-11-20T05:31:08;76.70;;;28.07;;
20283;SDS011;10301;50.832;4.080;2022-11-20T05:33:42;78.07;;;28.53;;
20283;SDS011;10301;50.832;4.080;2022-11-20T05:36:09;75.07;;;28.30;;
20283;SDS011;10301;50.832;4.080;2022-11-20T05:38:35;79.67;;;29.80;;
20283;SDS011;10301;50.832;4.080;2022-11-20T05:41:09;81.07;;;29.33;;
20283;SDS011;10301;50.832;4.080;2022-11-20T05:43:40;76.87;;;29.33;;
20283;SDS011;10301;50.832;4.080;2022-11-20T05:46:07;76.67;;;28.67;;
20283;SDS011;10301;50.832;4.080;2022-11-20T05:48:34;70.67;;;27.97;;
20283;SDS011;10301;50.832;4.080;2022-11-20T05:51:02;81.90;;;29.57;;
20283;SDS011;10301;50.832;4.080;2022-11-20T05:53:28;69.70;;;26.80;;
20283;SDS011;10301;50.832;4.080;2022-11-20T05:56:01;73.47;;;29.10;;
20283;SDS011;10301;50.832;4.080;2022-11-20T05:58:31;79.00;;;28.93;;
20283;SDS011;10301;50.832;4.080;2022-11-20T06:03:33;76.43;;;29.73;;
20283;SDS011;10301;50.832;4.080;2022-11-20T06:05:59;71.90;;;26.60;;
20283;SDS011;10301;50.832;4.080;2022-11-20T06:08:26;79.17;;;29.20;;
20283;SDS011;10301;50.832;4.080;2022-11-20T06:10:51;70.63;;;27.37;;
20283;SDS011;10301;50.832;4.080;2022-11-20T06:13:17;73.77;;;28.83;;
20283;SDS011;10301;50.832;4.080;2022-11-20T06:15:47;67.27;;;28.10;;
20283;SDS011;10301;50.832;4.080;2022-11-20T06:18:16;73.80;;;29.00;;
20283;SDS011;10301;50.832;4.080;2022-11-20T06:20:42;71.53;;;27.40;;
20283;SDS011;10301;50.832;4.080;2022-11-20T06:23:08;71.93;;;27.43;;
20283;SDS011;10301;50.832;4.080;2022-11-20T06:25:36;68.73;;;27.90;;
20283;SDS011;10301;50.832;4.080;2022-11-20T06:28:03;72.93;;;26.73;;
20283;SDS011;10301;50.832;4.080;2022-11-20T06:30:29;66.97;;;27.93;;
20283;SDS011;10301;50.832;4.080;2022-11-20T06:32:54;64.90;;;25.47;;
20283;SDS011;10301;50.832;4.080;2022-11-20T06:35:20;70.13;;;26.80;;
20283;SDS011;10301;50.832;4.080;2022-11-20T06:37:45;61.60;;;25.83;;
20283;SDS011;10301;50.832;4.080;2022-11-20T06:40:11;62.97;;;24.13;;
20283;SDS011;10301;50.832;4.080;2022-11-20T06:42:37;64.20;;;26.20;;
20283;SDS011;10301;50.832;4.080;2022-11-20T06:45:03;62.93;;;24.40;;
20283;SDS011;10301;50.832;4.080;2022-11-20T06:47:28;64.73;;;25.30;;
20283;SDS011;10301;50.832;4.080;2022-11-20T06:49:54;65.37;;;26.10;;
20283;SDS011;10301;50.832;4.080;2022-11-20T06:52:20;65.90;;;25.77;;
20283;SDS011;10301;50.832;4.080;2022-11-20T06:54:46;67.33;;;25.30;;
20283;SDS011;10301;50.832;4.080;2022-11-20T06:57:11;64.83;;;26.40;;
20283;SDS011;10301;50.832;4.080;2022-11-20T06:59:37;60.17;;;25.27;;
20283;SDS011;10301;50.832;4.080;2022-11-20T07:02:03;61.53;;;24.60;;
20283;SDS011;10301;50.832;4.080;2022-11-20T07:04:28;55.50;;;24.10;;
20283;SDS011;10301;50.832;4.080;2022-11-20T07:06:54;55.67;;;23.20;;
20283;SDS011;10301;50.832;4.080;2022-11-20T07:09:19;55.77;;;24.10;;
20283;SDS011;10301;50.832;4.080;2022-11-20T07:11:45;57.40;;;24.63;;
20283;SDS011;10301;50.832;4.080;2022-11-20T07:14:10;57.47;;;22.73;;
20283;SDS011;10301;50.832;4.080;2022-11-20T07:16:36;52.17;;;22.77;;
20283;SDS011;10301;50.832;4.080;2022-11-20T07:19:02;57.50;;;22.87;;
20283;SDS011;10301;50.832;4.080;2022-11-20T07:21:27;51.30;;;21.67;;
20283;SDS011;10301;50.832;4.080;2022-11-20T07:23:53;61.53;;;23.20;;
20283;SDS011;10301;50.832;4.080;2022-11-20T07:26:18;59.30;;;23.30;;
20283;SDS011;10301;50.832;4.080;2022-11-20T07:28:44;57.67;;;23.47;;
20283;SDS011;10301;50.832;4.080;2022-11-20T07:31:10;58.00;;;23.40;;
20283;SDS011;10301;50.832;4.080;2022-11-20T07:33:37;60.00;;;22.47;;
20283;SDS011;10301;50.832;4.080;2022-11-20T07:36:03;60.50;;;23.47;;
20283;SDS011;10301;50.832;4.080;2022-11-20T07:38:29;55.27;;;21.93;;
20283;SDS011;10301;50.832;4.080;2022-11-20T07:40:55;64.20;;;24.37;;
20283;SDS011;10301;50.832;4.080;2022-11-20T07:43:22;65.43;;;24.53;;
20283;SDS011;10301;50.832;4.080;2022-11-20T07:45:48;60.83;;;24.77;;
20283;SDS011;10301;50.832;4.080;2022-11-20T07:48:14;68.13;;;24.17;;
20283;SDS011;10301;50.832;4.080;2022-11-20T07:50:40;63.23;;;23.93;;
20283;SDS011;10301;50.832;4.080;2022-11-20T07:53:05;65.83;;;24.73;;
20283;SDS011;10301;50.832;4.080;2022-11-20T07:55:31;67.40;;;24.70;;
20283;SDS011;10301;50.832;4.080;2022-11-20T07:57:57;63.20;;;23.90;;
20283;SDS011;10301;50.832;4.080;2022-11-20T08:00:23;64.93;;;23.97;;
20283;SDS011;10301;50.832;4.080;2022-11-20T08:02:49;60.87;;;23.43;;
20283;SDS011;10301;50.832;4.080;2022-11-20T08:05:15;59.80;;;24.57;;
20283;SDS011;10301;50.832;4.080;2022-11-20T08:07:42;63.77;;;23.17;;
20283;SDS011;10301;50.832;4.080;2022-11-20T08:10:09;64.20;;;23.93;;
20283;SDS011;10301;50.832;4.080;2022-11-20T08:12:42;58.87;;;22.43;;
20283;SDS011;10301;50.832;4.080;2022-11-20T08:15:28;60.47;;;23.20;;
20283;SDS011;10301;50.832;4.080;2022-11-20T08:18:01;56.53;;;21.77;;
20283;SDS011;10301;50.832;4.080;2022-11-20T08:20:28;58.33;;;22.47;;
20283;SDS011;10301;50.832;4.080;2022-11-20T08:22:57;59.53;;;23.83;;
20283;SDS011;10301;50.832;4.080;2022-11-20T08:25:25;57.97;;;22.43;;
20283;SDS011;10301;50.832;4.080;2022-11-20T08:27:52;63.60;;;23.60;;
20283;SDS011;10301;50.832;4.080;2022-11-20T08:30:17;60.90;;;23.83;;
20283;SDS011;10301;50.832;4.080;2022-11-20T08:32:43;60.17;;;22.60;;
20283;SDS011;10301;50.832;4.080;2022-11-20T08:35:09;52.43;;;21.70;;
20283;SDS011;10301;50.832;4.080;2022-11-20T08:37:34;58.57;;;23.27;;
20283;SDS011;10301;50.832;4.080;2022-11-20T08:40:00;56.63;;;23.53;;
20283;SDS011;10301;50.832;4.080;2022-11-20T08:42:25;54.43;;;22.83;;
20283;SDS011;10301;50.832;4.080;2022-11-20T08:44:51;50.87;;;20.87;;
20283;SDS011;10301;50.832;4.080;2022-11-20T08:47:16;48.13;;;20.37;;
20283;SDS011;10301;50.832;4.080;2022-11-20T08:49:42;51.53;;;19.37;;
20283;SDS011;10301;50.832;4.080;2022-11-20T08:52:08;49.03;;;19.47;;
20283;SDS011;10301;50.832;4.080;2022-11-20T08:54:33;44.43;;;19.17;;
20283;SDS011;10301;50.832;4.080;2022-11-20T08:56:59;45.80;;;17.67;;
20283;SDS011;10301;50.832;4.080;2022-11-20T08:59:24;44.53;;;17.53;;
20283;SDS011;10301;50.832;4.080;2022-11-20T09:01:50;46.93;;;18.77;;
20283;SDS011;10301;50.832;4.080;2022-11-20T09:04:16;46.97;;;17.47;;
20283;SDS011;10301;50.832;4.080;2022-11-20T09:06:41;46.03;;;18.80;;
20283;SDS011;10301;50.832;4.080;2022-11-20T09:09:07;42.60;;;18.97;;
20283;SDS011;10301;50.832;4.080;2022-11-20T09:11:34;42.57;;;18.27;;
20283;SDS011;10301;50.832;4.080;2022-11-20T09:14:00;42.47;;;16.77;;
20283;SDS011;10301;50.832;4.080;2022-11-20T09:16:27;41.43;;;17.73;;
20283;SDS011;10301;50.832;4.080;2022-11-20T09:18:53;40.53;;;16.77;;
20283;SDS011;10301;50.832;4.080;2022-11-20T09:21:18;38.27;;;17.30;;
20283;SDS011;10301;50.832;4.080;2022-11-20T09:23:44;39.70;;;16.47;;
20283;SDS011;10301;50.832;4.080;2022-11-20T09:26:11;36.43;;;19.07;;
20283;SDS011;10301;50.832;4.080;2022-11-20T09:28:38;39.63;;;18.10;;
20283;SDS011;10301;50.832;4.080;2022-11-20T09:31:05;35.70;;;16.77;;
20283;SDS011;10301;50.832;4.080;2022-11-20T09:33:31;36.57;;;16.87;;
20283;SDS011;10301;50.832;4.080;2022-11-20T09:35:57;31.63;;;16.10;;
20283;SDS011;10301;50.832;4.080;2022-11-20T09:38:22;37.37;;;15.47;;
20283;SDS011;10301;50.832;4.080;2022-11-20T09:40:58;35.80;;;15.87;;
20283;SDS011;10301;50.832;4.080;2022-11-20T09:54:35;25.73;;;11.37;;
20283;SDS011;10301;50.832;4.080;2022-11-20T09:57:10;21.97;;;11.37;;
20283;SDS011;10301;50.832;4.080;2022-11-20T09:59:51;25.27;;;11.97;;
20283;SDS011;10301;50.832;4.080;2022-11-20T10:04:51;18.73;;;10.37;;
20283;SDS011;10301;50.832;4.080;2022-11-20T10:10:03;19.57;;;9.37;;
20283;SDS011;10301;50.832;4.080;2022-11-20T10:13:05;19.00;;;8.50;;
20283;SDS011;10301;50.832;4.080;2022-11-20T10:15:42;15.50;;;8.23;;
20283;SDS011;10301;50.832;4.080;2022-11-20T10:18:31;15.27;;;7.80;;
20283;SDS011;10301;50.832;4.080;2022-11-20T10:29:13;10.47;;;5.73;;
20283;SDS011;10301;50.832;4.080;2022-11-20T10:31:43;14.17;;;5.67;;
20283;SDS011;10301;50.832;4.080;2022-11-20T10:34:22;12.33;;;5.17;;
20283;SDS011;10301;50.832;4.080;2022-11-20T10:37:16;13.90;;;6.23;;
20283;SDS011;10301;50.832;4.080;2022-11-20T10:42:27;9.37;;;4.40;;
20283;SDS011;10301;50.832;4.080;2022-11-20T10:45:13;10.27;;;4.53;;
20283;SDS011;10301;50.832;4.080;2022-11-20T10:47:40;9.13;;;4.13;;
20283;SDS011;10301;50.832;4.080;2022-11-20T10:50:08;10.03;;;4.47;;
20283;SDS011;10301;50.832;4.080;2022-11-20T10:52:53;7.67;;;3.73;;
20283;SDS011;10301;50.832;4.080;2022-11-20T10:55:25;11.63;;;3.97;;
20283;SDS011;10301;50.832;4.080;2022-11-20T11:00:50;9.50;;;3.63;;
20283;SDS011;10301;50.832;4.080;2022-11-20T11:03:20;9.40;;;3.67;;
20283;SDS011;10301;50.832;4.080;2022-11-20T11:05:58;11.53;;;3.17;;
20283;SDS011;10301;50.832;4.080;2022-11-20T11:08:36;7.30;;;3.40;;
20283;SDS011;10301;50.832;4.080;2022-11-20T11:11:15;8.60;;;3.50;;
20283;SDS011;10301;50.832;4.080;2022-11-20T11:13:48;7.87;;;3.10;;
20283;SDS011;10301;50.832;4.080;2022-11-20T11:16:22;8.10;;;3.10;;
20283;SDS011;10301;50.832;4.080;2022-11-20T11:18:49;11.10;;;3.20;;
20283;SDS011;10301;50.832;4.080;2022-11-20T11:21:22;7.63;;;3.50;;
20283;SDS011;10301;50.832;4.080;2022-11-20T11:23:57;8.80;;;3.80;;
20283;SDS011;10301;50.832;4.080;2022-11-20T11:26:28;9.00;;;2.73;;
20283;SDS011;10301;50.832;4.080;2022-11-20T11:28:55;6.83;;;2.47;;
20283;SDS011;10301;50.832;4.080;2022-11-20T11:31:24;6.63;;;2.57;;
20283;SDS011;10301;50.832;4.080;2022-11-20T11:33:51;5.73;;;2.20;;
20283;SDS011;10301;50.832;4.080;2022-11-20T11:36:18;6.20;;;2.40;;
20283;SDS011;10301;50.832;4.080;2022-11-20T11:38:48;10.87;;;2.83;;
20283;SDS011;10301;50.832;4.080;2022-11-20T11:41:24;7.10;;;2.67;;
20283;SDS011;10301;50.832;4.080;2022-11-20T11:43:57;9.27;;;2.80;;
20283;SDS011;10301;50.832;4.080;2022-11-20T11:46:49;7.10;;;2.50;;
20283;SDS011;10301;50.832;4.080;2022-11-20T11:49:19;6.33;;;2.73;;
20283;SDS011;10301;50.832;4.080;2022-11-20T11:51:47;7.63;;;2.53;;
20283;SDS011;10301;50.832;4.080;2022-11-20T11:54:43;8.80;;;2.67;;
20283;SDS011;10301;50.832;4.080;2022-11-20T12:00:13;7.40;;;2.90;;
20283;SDS011;10301;50.832;4.080;2022-11-20T12:08:00;10.60;;;3.20;;
20283;SDS011;10301;50.832;4.080;2022-11-20T12:10:41;7.50;;;2.97;;
20283;SDS011;10301;50.832;4.080;2022-11-20T12:15:58;6.47;;;2.80;;
20283;SDS011;10301;50.832;4.080;2022-11-20T12:18:24;6.23;;;2.80;;
20283;SDS011;10301;50.832;4.080;2022-11-20T12:24:04;11.27;;;5.20;;
20283;SDS011;10301;50.832;4.080;2022-11-20T12:29:21;7.93;;;3.00;;
20283;SDS011;10301;50.832;4.080;2022-11-20T12:37:36;7.60;;;2.87;;
20283;SDS011;10301;50.832;4.080;2022-11-20T12:40:20;8.50;;;3.40;;
20283;SDS011;10301;50.832;4.080;2022-11-20T12:51:14;6.30;;;2.70;;
20283;SDS011;10301;50.832;4.080;2022-11-20T12:56:47;7.63;;;3.00;;
20283;SDS011;10301;50.832;4.080;2022-11-20T12:59:33;13.33;;;3.37;;
20283;SDS011;10301;50.832;4.080;2022-11-20T13:07:45;5.80;;;3.27;;
20283;SDS011;10301;50.832;4.080;2022-11-20T13:10:21;8.90;;;3.17;;
20283;SDS011;10301;50.832;4.080;2022-11-20T13:13:00;6.80;;;3.10;;
20283;SDS011;10301;50.832;4.080;2022-11-20T13:15:47;6.03;;;3.20;;
20283;SDS011;10301;50.832;4.080;2022-11-20T13:18:21;7.87;;;2.70;;
20283;SDS011;10301;50.832;4.080;2022-11-20T13:20:47;7.63;;;2.87;;
20283;SDS011;10301;50.832;4.080;2022-11-20T13:23:24;6.23;;;2.70;;
20283;SDS011;10301;50.832;4.080;2022-11-20T13:25:52;7.43;;;2.70;;
20283;SDS011;10301;50.832;4.080;2022-11-20T13:28:29;6.57;;;2.80;;
20283;SDS011;10301;50.832;4.080;2022-11-20T13:30:56;8.20;;;2.87;;
20283;SDS011;10301;50.832;4.080;2022-11-20T13:33:24;5.47;;;3.07;;
20283;SDS011;10301;50.832;4.080;2022-11-20T13:36:03;8.53;;;3.30;;
20283;SDS011;10301;50.832;4.080;2022-11-20T13:38:49;8.00;;;3.53;;
20283;SDS011;10301;50.832;4.080;2022-11-20T13:41:37;7.13;;;3.23;;
20283;SDS011;10301;50.832;4.080;2022-11-20T13:44:13;6.00;;;3.27;;
20283;SDS011;10301;50.832;4.080;2022-11-20T13:46:55;6.00;;;2.70;;
20283;SDS011;10301;50.832;4.080;2022-11-20T13:49:29;7.70;;;2.90;;
20283;SDS011;10301;50.832;4.080;2022-11-20T14:00:41;5.40;;;2.40;;
20283;SDS011;10301;50.832;4.080;2022-11-20T14:03:17;7.30;;;2.50;;
20283;SDS011;10301;50.832;4.080;2022-11-20T14:05:55;5.33;;;2.50;;
20283;SDS011;10301;50.832;4.080;2022-11-20T14:13:49;4.57;;;2.50;;
20283;SDS011;10301;50.832;4.080;2022-11-20T14:16:23;4.23;;;2.30;;
20283;SDS011;10301;50.832;4.080;2022-11-20T14:18:50;4.50;;;2.47;;
20283;SDS011;10301;50.832;4.080;2022-11-20T14:21:23;4.47;;;2.40;;
20283;SDS011;10301;50.832;4.080;2022-11-20T14:23:48;4.73;;;2.43;;
20283;SDS011;10301;50.832;4.080;2022-11-20T14:26:17;4.97;;;2.70;;
20283;SDS011;10301;50.832;4.080;2022-11-20T14:28:47;4.53;;;2.60;;
20283;SDS011;10301;50.832;4.080;2022-11-20T14:31:18;6.13;;;2.83;;
20283;SDS011;10301;50.832;4.080;2022-11-20T14:33:48;5.40;;;3.30;;
20283;SDS011;10301;50.832;4.080;2022-11-20T14:36:18;5.40;;;3.03;;
20283;SDS011;10301;50.832;4.080;2022-11-20T14:38:46;11.73;;;3.27;;
20283;SDS011;10301;50.832;4.080;2022-11-20T14:41:19;7.10;;;3.17;;
20283;SDS011;10301;50.832;4.080;2022-11-20T14:46:21;8.70;;;3.37;;
20283;SDS011;10301;50.832;4.080;2022-11-20T14:48:49;6.23;;;3.40;;
20283;SDS011;10301;50.832;4.080;2022-11-20T14:56:41;6.00;;;3.33;;
20283;SDS011;10301;50.832;4.080;2022-11-20T14:59:22;9.73;;;3.47;;
20283;SDS011;10301;50.832;4.080;2022-11-20T15:02:10;8.00;;;3.37;;
20283;SDS011;10301;50.832;4.080;2022-11-20T15:04:47;9.43;;;4.03;;
20283;SDS011;10301;50.832;4.080;2022-11-20T15:07:23;8.67;;;4.33;;
20283;SDS011;10301;50.832;4.080;2022-11-20T15:10:06;10.93;;;4.60;;
20283;SDS011;10301;50.832;4.080;2022-11-20T15:12:38;9.20;;;4.03;;
20283;SDS011;10301;50.832;4.080;2022-11-20T15:15:10;10.53;;;4.47;;
20283;SDS011;10301;50.832;4.080;2022-11-20T15:17:39;12.93;;;5.13;;
20283;SDS011;10301;50.832;4.080;2022-11-20T15:20:09;9.03;;;4.47;;
20283;SDS011;10301;50.832;4.080;2022-11-20T15:22:39;10.53;;;4.30;;
20283;SDS011;10301;50.832;4.080;2022-11-20T15:25:12;9.50;;;4.20;;
20283;SDS011;10301;50.832;4.080;2022-11-20T15:27:39;10.07;;;4.50;;
20283;SDS011;10301;50.832;4.080;2022-11-20T15:30:12;13.97;;;5.40;;
20283;SDS011;10301;50.832;4.080;2022-11-20T15:32:43;13.17;;;4.93;;
20283;SDS011;10301;50.832;4.080;2022-11-20T15:35:09;13.83;;;4.40;;
20283;SDS011;10301;50.832;4.080;2022-11-20T15:37:36;16.23;;;4.97;;
20283;SDS011;10301;50.832;4.080;2022-11-20T15:40:03;10.90;;;5.07;;
20283;SDS011;10301;50.832;4.080;2022-11-20T15:42:29;14.77;;;4.57;;
20283;SDS011;10301;50.832;4.080;2022-11-20T15:44:55;12.07;;;3.87;;
20283;SDS011;10301;50.832;4.080;2022-11-20T15:47:22;12.97;;;3.83;;
20283;SDS011;10301;50.832;4.080;2022-11-20T15:49:57;14.67;;;4.83;;
20283;SDS011;10301;50.832;4.080;2022-11-20T15:52:23;19.13;;;5.57;;
20283;SDS011;10301;50.832;4.080;2022-11-20T15:54:48;13.93;;;4.50;;
20283;SDS011;10301;50.832;4.080;2022-11-20T15:57:14;12.63;;;4.13;;
20283;SDS011;10301;50.832;4.080;2022-11-20T15:59:40;14.80;;;4.57;;
20283;SDS011;10301;50.832;4.080;2022-11-20T16:02:13;17.90;;;5.60;;
20283;SDS011;10301;50.832;4.080;2022-11-20T16:04:40;21.03;;;6.73;;
20283;SDS011;10301;50.832;4.080;2022-11-20T16:07:06;18.27;;;6.33;;
20283;SDS011;10301;50.832;4.080;2022-11-20T16:09:32;17.80;;;5.43;;
20283;SDS011;10301;50.832;4.080;2022-11-20T16:11:57;16.17;;;4.60;;
20283;SDS011;10301;50.832;4.080;2022-11-20T16:14:24;15.67;;;4.70;;
20283;SDS011;10301;50.832;4.080;2022-11-20T16:17:09;15.83;;;3.93;;
20283;SDS011;10301;50.832;4.080;2022-11-20T16:19:34;13.53;;;3.60;;